Time;durP1;ratioP1;P1;durP2;ratioP2;P2;SDS_P1;SDS_P2;PMS_P1;PMS_P2;Temp;Humidity;BMP_temperature;BMP_pressure;BME280_temperature;BME280_humidity;BME280_pressure;Samples;Min_cycle;Max_cycle;Signal;HPM_P1;HPM_P2
2023/07/19 00:02:24;;;;;;;0.20;0.20;;;18.20;99.90;;;;;;5094552;28;20083;-75
2023/07/19 00:04:50;;;;;;;0.30;0.30;;;18.20;99.90;;;;;;5094494;28;20119;-75
2023/07/19 00:07:16;;;;;;;0.20;0.20;;;18.10;99.90;;;;;;5094386;28;20036;-74
2023/07/19 00:09:41;;;;;;;0.33;0.30;;;18.10;99.90;;;;;;5094588;28;20032;-74
2023/07/19 00:12:07;;;;;;;0.30;0.30;;;18.10;99.90;;;;;;5094324;28;20456;-74
2023/07/19 00:14:33;;;;;;;0.30;0.30;;;18.10;99.90;;;;;;5093091;28;20127;-73
2023/07/19 00:16:58;;;;;;;0.30;0.30;;;18.00;99.90;;;;;;5094437;28;20193;-72
2023/07/19 00:19:24;;;;;;;0.30;0.30;;;18.00;99.90;;;;;;5094232;28;20388;-72
2023/07/19 00:21:50;;;;;;;0.30;0.30;;;18.00;99.90;;;;;;5094179;28;20124;-73
2023/07/19 00:24:16;;;;;;;0.20;0.20;;;17.90;99.90;;;;;;5094208;28;20046;-74
2023/07/19 00:26:42;;;;;;;0.30;0.30;;;17.90;99.90;;;;;;5093840;28;20122;-72
2023/07/19 00:29:07;;;;;;;0.30;0.30;;;17.80;99.90;;;;;;5094094;28;20137;-75
2023/07/19 00:31:33;;;;;;;0.43;0.43;;;17.80;99.90;;;;;;5093765;28;20036;-72
2023/07/19 00:33:59;;;;;;;0.30;0.30;;;17.80;99.90;;;;;;5094425;28;20039;-75
2023/07/19 00:36:24;;;;;;;0.30;0.30;;;17.80;99.90;;;;;;5093931;28;20039;-74
2023/07/19 00:38:50;;;;;;;0.30;0.30;;;17.80;99.90;;;;;;5093849;28;20035;-74
2023/07/19 00:41:18;;;;;;;0.30;0.30;;;17.90;99.90;;;;;;5093888;28;20040;-75
2023/07/19 00:43:43;;;;;;;0.30;0.30;;;17.80;99.90;;;;;;5093828;28;20460;-73
2023/07/19 00:46:10;;;;;;;0.30;0.30;;;17.80;99.90;;;;;;5094189;28;20039;-73
2023/07/19 00:48:36;;;;;;;0.20;0.20;;;17.80;99.90;;;;;;5093561;28;20483;-75
2023/07/19 00:51:02;;;;;;;0.30;0.30;;;17.80;99.90;;;;;;5094132;28;20040;-73
2023/07/19 00:53:28;;;;;;;0.20;0.20;;;17.80;99.90;;;;;;5093736;28;20043;-74
2023/07/19 00:55:54;;;;;;;0.30;0.30;;;17.80;99.90;;;;;;5093770;28;20036;-73
2023/07/19 00:58:22;;;;;;;0.20;0.20;;;17.80;99.90;;;;;;5093408;28;20101;-74
2023/07/19 01:00:48;;;;;;;0.30;0.30;;;17.70;99.90;;;;;;5093595;28;20055;-76
2023/07/19 01:03:13;;;;;;;0.30;0.30;;;17.80;99.90;;;;;;5093712;28;20044;-75
2023/07/19 01:05:40;;;;;;;0.30;0.30;;;17.70;99.90;;;;;;5093728;28;20456;-72
2023/07/19 01:08:06;;;;;;;0.30;0.30;;;17.70;99.90;;;;;;5095285;28;20073;-73
2023/07/19 01:10:31;;;;;;;0.30;0.30;;;17.70;99.90;;;;;;5097756;28;20168;-76
2023/07/19 01:13:07;;;;;;;0.30;0.30;;;17.60;99.90;;;;;;5097693;28;20092;-74
2023/07/19 01:15:32;;;;;;;0.30;0.30;;;17.60;99.90;;;;;;5098131;28;20067;-75
2023/07/19 01:17:58;;;;;;;0.30;0.30;;;17.60;99.90;;;;;;5097541;28;20055;-75
2023/07/19 01:20:24;;;;;;;0.30;0.30;;;17.60;99.90;;;;;;5097817;28;20032;-74
2023/07/19 01:22:50;;;;;;;0.33;0.30;;;17.60;99.90;;;;;;5097623;28;20368;-76
2023/07/19 01:25:15;;;;;;;0.30;0.30;;;17.60;99.90;;;;;;5097144;28;20032;-75
2023/07/19 01:27:41;;;;;;;0.30;0.30;;;17.60;99.90;;;;;;5097459;28;20044;-75
2023/07/19 01:30:07;;;;;;;0.30;0.30;;;17.50;99.90;;;;;;5097844;28;20035;-75
2023/07/19 01:32:33;;;;;;;0.30;0.30;;;17.60;99.90;;;;;;5097451;28;20375;-75
2023/07/19 01:34:59;;;;;;;0.30;0.30;;;17.60;99.90;;;;;;5097738;28;20040;-72
2023/07/19 01:37:26;;;;;;;0.30;0.30;;;17.60;99.90;;;;;;5097164;28;20047;-75
2023/07/19 01:39:52;;;;;;;0.20;0.20;;;17.60;99.90;;;;;;5097803;28;20408;-74
2023/07/19 01:42:17;;;;;;;0.30;0.30;;;17.60;99.90;;;;;;5097170;28;20036;-76
2023/07/19 01:44:43;;;;;;;0.30;0.30;;;17.70;99.90;;;;;;5097168;28;20109;-75
2023/07/19 01:47:09;;;;;;;0.47;0.47;;;17.60;99.90;;;;;;5097122;28;20040;-73
2023/07/19 01:49:35;;;;;;;0.30;0.30;;;17.60;99.90;;;;;;5097361;28;20062;-75
2023/07/19 01:52:00;;;;;;;0.30;0.30;;;17.50;99.90;;;;;;5097066;28;20032;-72
2023/07/19 01:54:26;;;;;;;0.30;0.30;;;17.50;99.90;;;;;;5097075;28;20039;-73
2023/07/19 01:56:52;;;;;;;0.30;0.30;;;17.50;99.90;;;;;;5096624;28;20047;-76
2023/07/19 01:59:17;;;;;;;0.40;0.40;;;17.50;99.90;;;;;;5096849;28;20126;-74
2023/07/19 02:01:43;;;;;;;0.30;0.30;;;17.50;99.90;;;;;;5095820;28;20486;-75
2023/07/19 02:04:09;;;;;;;0.23;0.23;;;17.50;99.90;;;;;;5096848;28;20162;-75
2023/07/19 02:06:35;;;;;;;0.30;0.30;;;17.50;99.90;;;;;;5112747;28;20381;-73
2023/07/19 02:09:00;;;;;;;0.30;0.30;;;17.50;99.90;;;;;;5096673;28;20051;-75
2023/07/19 02:11:26;;;;;;;0.33;0.33;;;17.50;99.90;;;;;;5096538;28;20052;-73
2023/07/19 02:13:52;;;;;;;0.30;0.30;;;17.50;99.90;;;;;;5096619;28;20043;-73
2023/07/19 02:16:17;;;;;;;0.20;0.20;;;17.50;99.90;;;;;;5096586;28;20043;-75
2023/07/19 02:18:43;;;;;;;0.30;0.30;;;17.50;99.90;;;;;;5096144;28;20048;-75
2023/07/19 02:21:09;;;;;;;0.30;0.30;;;17.60;99.90;;;;;;5096597;28;20048;-74
2023/07/19 02:23:34;;;;;;;0.30;0.30;;;17.60;99.90;;;;;;5096658;28;20028;-73
2023/07/19 02:26:00;;;;;;;0.30;0.30;;;17.50;99.90;;;;;;5096377;28;20082;-74
2023/07/19 02:28:25;;;;;;;0.27;0.27;;;17.50;99.90;;;;;;5096299;28;20044;-74
2023/07/19 02:30:51;;;;;;;0.30;0.30;;;17.50;99.90;;;;;;5096820;28;20058;-73
2023/07/19 02:33:17;;;;;;;0.20;0.20;;;17.50;99.90;;;;;;5096404;28;20475;-72
2023/07/19 02:35:43;;;;;;;0.40;0.40;;;17.50;99.90;;;;;;5095970;28;20480;-74
2023/07/19 02:38:09;;;;;;;0.30;0.30;;;17.50;99.90;;;;;;5095340;28;20040;-73
2023/07/19 02:40:35;;;;;;;0.30;0.30;;;17.40;99.90;;;;;;5096171;28;20043;-74
2023/07/19 02:43:01;;;;;;;0.20;0.20;;;17.50;99.90;;;;;;5095977;28;20472;-74
2023/07/19 02:45:27;;;;;;;0.20;0.20;;;17.50;99.90;;;;;;5096414;28;20071;-73
2023/07/19 02:47:52;;;;;;;0.40;0.40;;;17.50;99.90;;;;;;5096007;28;20054;-74
2023/07/19 02:50:19;;;;;;;0.30;0.30;;;17.40;99.90;;;;;;5095846;28;20074;-75
2023/07/19 02:52:45;;;;;;;0.30;0.30;;;17.40;99.90;;;;;;5096143;28;20035;-73
2023/07/19 02:55:11;;;;;;;0.30;0.30;;;17.40;99.90;;;;;;5095831;28;20373;-73
2023/07/19 02:57:36;;;;;;;0.30;0.30;;;17.30;99.90;;;;;;5095444;28;20043;-73
2023/07/19 03:00:03;;;;;;;0.20;0.20;;;17.30;99.90;;;;;;5095909;28;20040;-72
2023/07/19 03:02:28;;;;;;;0.30;0.30;;;17.30;99.90;;;;;;5095715;28;20119;-73
2023/07/19 03:04:55;;;;;;;0.30;0.30;;;17.30;99.90;;;;;;5095635;28;20196;-73
2023/07/19 03:07:21;;;;;;;;;;;17.30;99.90;;;;;;5095998;28;20456;-72
2023/07/19 03:09:47;;;;;;;0.30;0.30;;;17.30;99.90;;;;;;5095555;28;20290;-74
2023/07/19 03:12:13;;;;;;;0.20;0.20;;;17.30;99.90;;;;;;5095407;28;20043;-74
2023/07/19 03:14:39;;;;;;;0.30;0.30;;;17.30;99.90;;;;;;5095576;28;20036;-76
2023/07/19 03:17:05;;;;;;;0.33;0.33;;;17.30;99.90;;;;;;5095423;28;20052;-75
2023/07/19 03:19:31;;;;;;;0.30;0.30;;;17.30;99.90;;;;;;5095427;28;20608;-74
2023/07/19 03:21:56;;;;;;;0.30;0.30;;;17.30;99.90;;;;;;5095529;28;20172;-74
2023/07/19 03:24:22;;;;;;;0.50;0.50;;;17.30;99.90;;;;;;5095277;28;20040;-75
2023/07/19 03:26:48;;;;;;;0.20;0.20;;;17.20;99.90;;;;;;5095165;28;20372;-74
2023/07/19 03:29:14;;;;;;;0.30;0.30;;;17.20;99.90;;;;;;5095052;28;20112;-75
2023/07/19 03:31:40;;;;;;;0.23;0.23;;;17.20;99.90;;;;;;5094475;28;20373;-73
2023/07/19 03:34:06;;;;;;;0.30;0.30;;;17.20;99.90;;;;;;5095232;28;20044;-73
2023/07/19 03:36:31;;;;;;;0.30;0.30;;;17.20;99.90;;;;;;5095054;28;20048;-72
2023/07/19 03:38:57;;;;;;;0.30;0.30;;;17.20;99.90;;;;;;5095013;28;20039;-72
2023/07/19 03:41:23;;;;;;;0.30;0.30;;;17.20;99.90;;;;;;5094864;28;20535;-72
2023/07/19 03:43:49;;;;;;;0.40;0.40;;;17.20;99.90;;;;;;5094815;28;20044;-72
2023/07/19 03:46:15;;;;;;;0.30;0.30;;;17.20;99.90;;;;;;5094744;28;20491;-74
2023/07/19 03:48:40;;;;;;;0.30;0.30;;;17.20;99.90;;;;;;5094854;28;20032;-75
2023/07/19 03:51:06;;;;;;;0.30;0.30;;;17.20;99.90;;;;;;5094443;28;20231;-74
2023/07/19 03:53:32;;;;;;;0.30;0.30;;;17.20;99.90;;;;;;5094797;28;20071;-75
2023/07/19 03:55:59;;;;;;;0.30;0.30;;;17.20;99.90;;;;;;5094549;28;20089;-72
2023/07/19 03:58:26;;;;;;;0.30;0.30;;;17.20;99.90;;;;;;5094163;28;20527;-75
2023/07/19 04:00:53;;;;;;;0.30;0.30;;;17.20;99.90;;;;;;5095035;28;20127;-73
2023/07/19 04:03:20;;;;;;;0.43;0.32;;;17.20;99.90;;;;;;5094523;28;20047;-73
2023/07/19 04:05:46;;;;;;;0.30;0.30;;;17.20;99.90;;;;;;5094388;28;20039;-72
2023/07/19 04:08:14;;;;;;;0.20;0.20;;;17.20;99.90;;;;;;5094521;28;20069;-74
2023/07/19 04:10:40;;;;;;;0.30;0.30;;;17.10;99.90;;;;;;5094279;28;20127;-72
2023/07/19 04:13:06;;;;;;;0.30;0.30;;;17.10;99.90;;;;;;5094434;28;20123;-73
2023/07/19 04:15:32;;;;;;;0.50;0.50;;;17.10;99.90;;;;;;5094712;28;20087;-73
2023/07/19 04:17:58;;;;;;;0.98;0.95;;;17.10;99.90;;;;;;5094496;28;20495;-73
2023/07/19 04:20:25;;;;;;;0.27;0.27;;;17.00;99.90;;;;;;5094378;28;20083;-73
2023/07/19 04:22:51;;;;;;;0.22;0.22;;;17.00;99.90;;;;;;5094162;28;20036;-73
2023/07/19 04:25:17;;;;;;;0.30;0.30;;;17.00;99.90;;;;;;5094033;28;20049;-73
2023/07/19 04:27:43;;;;;;;0.28;0.28;;;16.90;99.90;;;;;;5093947;28;20457;-76
2023/07/19 04:30:09;;;;;;;0.40;0.40;;;16.90;99.90;;;;;;5094175;28;20040;-75
2023/07/19 04:32:34;;;;;;;0.30;0.30;;;16.90;99.90;;;;;;5094270;28;20551;-72
2023/07/19 04:35:00;;;;;;;1.00;0.60;;;16.90;99.90;;;;;;5094148;28;20031;-76
2023/07/19 04:37:26;;;;;;;0.30;0.30;;;16.90;99.90;;;;;;5094026;28;20537;-74
2023/07/19 04:39:51;;;;;;;0.30;0.30;;;16.90;99.90;;;;;;5094011;28;20491;-72
2023/07/19 04:42:18;;;;;;;0.30;0.30;;;16.90;99.90;;;;;;5094396;28;20054;-71
2023/07/19 04:44:45;;;;;;;0.30;0.30;;;16.90;99.90;;;;;;5093880;28;20098;-71
2023/07/19 04:47:11;;;;;;;0.55;0.55;;;16.90;99.90;;;;;;5093766;28;20089;-71
2023/07/19 04:49:37;;;;;;;0.20;0.20;;;16.90;99.90;;;;;;5093535;28;20044;-74
2023/07/19 04:52:03;;;;;;;0.30;0.30;;;16.90;99.90;;;;;;5093850;28;20467;-70
2023/07/19 04:54:29;;;;;;;0.40;0.40;;;17.00;99.90;;;;;;5093968;28;20036;-74
2023/07/19 04:56:54;;;;;;;0.30;0.30;;;17.00;99.90;;;;;;5094175;28;20040;-73
2023/07/19 04:59:20;;;;;;;0.30;0.30;;;16.90;99.90;;;;;;5093933;28;20530;-73
2023/07/19 05:01:46;;;;;;;0.40;0.40;;;17.00;99.90;;;;;;5092174;28;20387;-76
2023/07/19 05:04:12;;;;;;;0.30;0.30;;;17.00;99.90;;;;;;5093707;28;20044;-73
2023/07/19 05:06:38;;;;;;;0.30;0.30;;;17.00;99.90;;;;;;5093571;28;20040;-74
2023/07/19 05:09:04;;;;;;;0.23;0.23;;;17.10;99.90;;;;;;5093593;28;20042;-71
2023/07/19 05:11:30;;;;;;;0.30;0.30;;;17.10;99.90;;;;;;5093503;28;20043;-70
2023/07/19 05:13:56;;;;;;;0.40;0.40;;;17.20;99.90;;;;;;5093614;28;20376;-70
2023/07/19 05:16:22;;;;;;;0.40;0.40;;;17.20;99.90;;;;;;5093679;28;20236;-72
2023/07/19 05:18:47;;;;;;;0.40;0.40;;;17.20;99.90;;;;;;5093073;28;20067;-69
2023/07/19 05:21:13;;;;;;;0.30;0.30;;;17.30;99.90;;;;;;5092841;28;20036;-73
2023/07/19 05:23:40;;;;;;;0.20;0.20;;;17.30;99.90;;;;;;5092720;28;20027;-71
2023/07/19 05:26:06;;;;;;;0.20;0.20;;;17.30;99.90;;;;;;5092785;28;20036;-72
2023/07/19 05:28:31;;;;;;;0.40;0.40;;;17.30;99.90;;;;;;5093198;28;20042;-72
2023/07/19 05:31:04;;;;;;;0.30;0.30;;;17.30;99.90;;;;;;5093728;28;20065;-71
2023/07/19 05:33:32;;;;;;;0.30;0.30;;;17.30;99.90;;;;;;5093360;28;20066;-72
2023/07/19 05:35:57;;;;;;;0.30;0.30;;;17.20;99.90;;;;;;5093143;28;20087;-72
2023/07/19 05:38:23;;;;;;;0.30;0.30;;;17.20;99.90;;;;;;5092110;28;20425;-71
2023/07/19 05:40:49;;;;;;;0.40;0.40;;;17.20;99.90;;;;;;5093258;28;20487;-72
2023/07/19 05:43:18;;;;;;;0.40;0.40;;;17.20;99.90;;;;;;5094030;28;20039;-71
2023/07/19 05:45:44;;;;;;;0.30;0.30;;;17.20;99.90;;;;;;5093168;28;20372;-72
2023/07/19 05:48:09;;;;;;;0.53;0.47;;;17.20;99.90;;;;;;5093437;28;20043;-72
2023/07/19 05:50:37;;;;;;;0.37;0.30;;;17.20;99.90;;;;;;5093352;28;20036;-72
2023/07/19 05:53:03;;;;;;;0.35;0.35;;;17.30;99.90;;;;;;5093760;28;20051;-73
2023/07/19 05:55:29;;;;;;;0.30;0.30;;;17.30;99.90;;;;;;5096847;28;20028;-71
2023/07/19 05:57:54;;;;;;;0.33;0.33;;;17.30;99.90;;;;;;5096964;28;20039;-68
2023/07/19 06:00:24;;;;;;;0.30;0.30;;;17.30;99.90;;;;;;5096789;28;20098;-70
2023/07/19 06:02:52;;;;;;;0.30;0.30;;;17.30;99.90;;;;;;5096914;28;20039;-71
2023/07/19 06:05:18;;;;;;;0.30;0.30;;;17.30;99.90;;;;;;5096534;28;20475;-71
2023/07/19 06:07:45;;;;;;;0.30;0.30;;;17.30;99.90;;;;;;5096656;28;20093;-70
2023/07/19 06:10:10;;;;;;;;;;;17.20;99.90;;;;;;5096629;28;20410;-71
2023/07/19 06:12:36;;;;;;;0.30;0.30;;;17.20;99.90;;;;;;5096607;28;20009;-70
2023/07/19 06:15:02;;;;;;;0.30;0.30;;;17.20;99.90;;;;;;5097283;28;20046;-72
2023/07/19 06:17:27;;;;;;;0.30;0.30;;;17.20;99.90;;;;;;5096467;28;20051;-71
2023/07/19 06:19:53;;;;;;;0.30;0.30;;;17.30;99.90;;;;;;5095332;28;20490;-70
2023/07/19 06:22:19;;;;;;;0.30;0.30;;;17.30;99.90;;;;;;5096441;28;20047;-72
2023/07/19 06:24:44;;;;;;;0.50;0.40;;;17.30;99.90;;;;;;5096421;28;20449;-71
2023/07/19 06:27:10;;;;;;;0.20;0.20;;;17.30;99.90;;;;;;5096264;28;20028;-70
2023/07/19 06:29:35;;;;;;;0.30;0.30;;;17.30;99.90;;;;;;5096817;28;20098;-70
2023/07/19 06:32:01;;;;;;;0.30;0.30;;;17.30;99.90;;;;;;5096468;28;20040;-72
2023/07/19 06:34:27;;;;;;;0.30;0.30;;;17.40;99.90;;;;;;5096417;28;20161;-71
2023/07/19 06:36:52;;;;;;;0.30;0.30;;;17.50;99.90;;;;;;5096060;28;20081;-71
2023/07/19 06:39:18;;;;;;;0.30;0.30;;;17.50;99.90;;;;;;5096024;28;20044;-71
2023/07/19 06:41:43;;;;;;;0.30;0.30;;;17.60;99.90;;;;;;5096504;28;20028;-71
2023/07/19 06:44:09;;;;;;;0.30;0.30;;;17.60;99.90;;;;;;5095802;28;20456;-71
2023/07/19 06:46:35;;;;;;;0.40;0.40;;;17.60;99.90;;;;;;5095992;28;20455;-70
2023/07/19 06:49:00;;;;;;;0.30;0.30;;;17.70;99.90;;;;;;5096018;28;20379;-72
2023/07/19 06:51:27;;;;;;;0.30;0.30;;;17.70;99.90;;;;;;5095952;28;20051;-72
2023/07/19 06:53:52;;;;;;;0.20;0.20;;;17.70;99.90;;;;;;5095747;28;20113;-70
2023/07/19 06:56:18;;;;;;;0.83;0.57;;;17.80;99.90;;;;;;5095867;28;20456;-71
2023/07/19 06:58:44;;;;;;;0.20;0.20;;;17.80;99.90;;;;;;5096010;28;20039;-67
2023/07/19 07:01:10;;;;;;;0.30;0.30;;;17.90;99.90;;;;;;5095849;28;20519;-68
2023/07/19 07:03:35;;;;;;;0.30;0.30;;;18.00;99.90;;;;;;5095682;28;20043;-68
2023/07/19 07:06:01;;;;;;;0.30;0.30;;;18.00;99.90;;;;;;5094589;28;20039;-68
2023/07/19 07:08:27;;;;;;;0.30;0.30;;;18.10;99.90;;;;;;5095608;28;20233;-68
2023/07/19 07:10:53;;;;;;;0.27;0.27;;;18.20;99.90;;;;;;5095926;28;20165;-69
2023/07/19 07:13:19;;;;;;;0.20;0.20;;;18.30;99.90;;;;;;5095450;28;20044;-69
2023/07/19 07:15:45;;;;;;;0.30;0.30;;;18.40;99.90;;;;;;5095268;28;20464;-69
2023/07/19 07:18:11;;;;;;;0.30;0.30;;;18.50;99.90;;;;;;5093265;28;20048;-70
2023/07/19 07:20:36;;;;;;;0.20;0.20;;;18.60;99.90;;;;;;5092236;28;20048;-70
2023/07/19 07:23:02;;;;;;;0.30;0.30;;;18.70;99.90;;;;;;5092023;28;20050;-70
2023/07/19 07:25:29;;;;;;;0.33;0.33;;;18.60;99.90;;;;;;5092727;28;20123;-70
2023/07/19 07:27:55;;;;;;;0.20;0.20;;;18.60;99.90;;;;;;5092652;28;20083;-69
2023/07/19 07:30:21;;;;;;;0.73;0.30;;;18.70;99.90;;;;;;5092642;28;20121;-69
2023/07/19 07:32:49;;;;;;;0.20;0.20;;;18.60;99.90;;;;;;5092711;28;20040;-70
2023/07/19 07:35:14;;;;;;;0.40;0.40;;;18.80;99.90;;;;;;5094876;28;20532;-70
2023/07/19 07:37:40;;;;;;;0.30;0.30;;;18.90;99.90;;;;;;5094979;28;20084;-69
2023/07/19 07:40:08;;;;;;;0.20;0.20;;;19.00;99.90;;;;;;5095164;28;20036;-69
2023/07/19 07:42:34;;;;;;;0.40;0.40;;;19.00;99.90;;;;;;5094861;28;20036;-70
2023/07/19 07:45:00;;;;;;;0.33;0.33;;;19.00;99.90;;;;;;5094840;28;20032;-70
2023/07/19 07:47:26;;;;;;;0.30;0.30;;;19.00;99.90;;;;;;5094904;28;20487;-70
2023/07/19 07:49:51;;;;;;;0.27;0.27;;;19.00;99.90;;;;;;5094795;28;20036;-70
2023/07/19 07:52:17;;;;;;;0.37;0.37;;;19.00;99.90;;;;;;5094574;28;20044;-69
2023/07/19 07:54:44;;;;;;;0.40;0.40;;;19.00;99.90;;;;;;5094389;28;20039;-69
2023/07/19 07:57:09;;;;;;;;;;;19.10;99.90;;;;;;5095028;28;20123;-70
2023/07/19 07:59:35;;;;;;;0.20;0.20;;;19.10;99.90;;;;;;5094551;28;20001;-70
2023/07/19 08:02:01;;;;;;;0.20;0.20;;;19.10;99.90;;;;;;5094468;28;20163;-71
2023/07/19 08:04:27;;;;;;;0.30;0.30;;;19.20;99.90;;;;;;5094512;28;20040;-71
2023/07/19 08:06:53;;;;;;;0.20;0.20;;;19.20;99.90;;;;;;5094272;28;20438;-71
2023/07/19 08:09:19;;;;;;;;;;;19.20;99.90;;;;;;5094885;28;20047;-70
2023/07/19 08:11:45;;;;;;;0.43;0.30;;;19.40;99.90;;;;;;5094132;28;20338;-70
2023/07/19 08:14:10;;;;;;;0.20;0.20;;;19.50;99.90;;;;;;5094325;28;20036;-70
2023/07/19 08:16:36;;;;;;;0.30;0.30;;;19.50;99.90;;;;;;5094199;28;20428;-69
2023/07/19 08:19:02;;;;;;;0.30;0.30;;;19.60;99.90;;;;;;5094436;28;20051;-70
2023/07/19 08:21:27;;;;;;;0.30;0.30;;;19.60;99.90;;;;;;5094169;28;20044;-69
2023/07/19 08:23:55;;;;;;;0.63;0.63;;;19.70;99.90;;;;;;5094185;28;20476;-69
2023/07/19 08:26:22;;;;;;;0.20;0.20;;;19.70;99.90;;;;;;5094042;28;20057;-70
2023/07/19 08:28:47;;;;;;;0.30;0.30;;;19.70;99.90;;;;;;5093998;28;20087;-70
2023/07/19 08:31:14;;;;;;;0.20;0.20;;;19.70;99.90;;;;;;5094394;28;20048;-69
2023/07/19 08:33:40;;;;;;;0.20;0.20;;;19.80;99.90;;;;;;5094071;28;20051;-69
2023/07/19 08:36:05;;;;;;;0.30;0.30;;;20.00;99.90;;;;;;5093939;28;20036;-69
2023/07/19 08:38:31;;;;;;;0.30;0.30;;;20.10;99.90;;;;;;5093646;28;20062;-70
2023/07/19 08:41:02;;;;;;;0.30;0.30;;;20.10;99.90;;;;;;5093656;28;20036;-70
2023/07/19 08:43:30;;;;;;;0.20;0.20;;;20.10;99.90;;;;;;5094217;28;20062;-70
2023/07/19 08:45:56;;;;;;;0.20;0.20;;;20.20;99.90;;;;;;5093586;28;20047;-69
2023/07/19 08:48:22;;;;;;;0.30;0.30;;;20.10;99.90;;;;;;5093800;28;20121;-70
2023/07/19 08:50:55;;;;;;;0.20;0.20;;;20.10;99.90;;;;;;5093741;28;20070;-69
2023/07/19 08:53:22;;;;;;;0.20;0.20;;;20.20;99.90;;;;;;5094266;28;20051;-69
2023/07/19 08:55:48;;;;;;;0.25;0.25;;;20.30;99.90;;;;;;5093762;28;20056;-70
2023/07/19 08:58:17;;;;;;;0.20;0.20;;;20.30;99.90;;;;;;5093728;28;20038;-70
2023/07/19 09:00:44;;;;;;;0.30;0.30;;;20.30;99.90;;;;;;5093733;28;20036;-69
2023/07/19 09:03:10;;;;;;;0.30;0.30;;;20.40;99.90;;;;;;5093782;28;20039;-69
2023/07/19 09:05:38;;;;;;;0.30;0.30;;;20.60;99.90;;;;;;5093583;28;20043;-72
2023/07/19 09:08:04;;;;;;;0.25;0.25;;;20.60;99.90;;;;;;5093620;28;20472;-70
2023/07/19 09:10:30;;;;;;;0.20;0.20;;;20.70;99.90;;;;;;5093555;28;20085;-69
2023/07/19 09:12:56;;;;;;;0.30;0.30;;;20.70;99.90;;;;;;5093483;28;20051;-69
2023/07/19 09:15:22;;;;;;;0.30;0.30;;;20.70;99.90;;;;;;5093440;28;20388;-69
2023/07/19 09:17:49;;;;;;;0.30;0.30;;;20.80;99.90;;;;;;5093641;28;20113;-69
2023/07/19 09:20:16;;;;;;;0.28;0.28;;;20.90;99.90;;;;;;5093388;28;20044;-70
2023/07/19 09:22:42;;;;;;;0.30;0.30;;;20.90;99.90;;;;;;5093467;28;20047;-68
2023/07/19 09:25:10;;;;;;;0.20;0.20;;;20.90;99.90;;;;;;5093430;28;20036;-69
2023/07/19 09:27:36;;;;;;;0.20;0.20;;;21.00;99.90;;;;;;5093590;28;20040;-69
2023/07/19 09:30:08;;;;;;;0.20;0.20;;;21.00;99.90;;;;;;5097500;28;20040;-69
2023/07/19 09:32:34;;;;;;;0.38;0.38;;;21.00;99.90;;;;;;5097558;28;20040;-70
2023/07/19 09:35:03;;;;;;;0.20;0.20;;;21.00;99.90;;;;;;5097317;28;20052;-70
2023/07/19 09:37:29;;;;;;;0.20;0.20;;;21.00;99.90;;;;;;5097335;28;20551;-69
2023/07/19 09:39:56;;;;;;;0.20;0.20;;;21.10;99.90;;;;;;5097327;28;20126;-70
2023/07/19 09:42:24;;;;;;;0.30;0.30;;;21.10;99.90;;;;;;5097304;28;20044;-69
2023/07/19 09:44:50;;;;;;;0.20;0.20;;;21.10;99.90;;;;;;5097319;28;20036;-70
2023/07/19 09:47:17;;;;;;;0.30;0.30;;;21.00;99.90;;;;;;5096863;28;20036;-72
2023/07/19 09:49:43;;;;;;;0.20;0.20;;;20.80;99.90;;;;;;5097137;28;20055;-69
2023/07/19 09:52:13;;;;;;;0.20;0.20;;;20.70;99.90;;;;;;5097054;28;20079;-69
2023/07/19 09:54:39;;;;;;;0.20;0.20;;;20.60;99.90;;;;;;5095783;28;20119;-70
2023/07/19 09:57:05;;;;;;;0.20;0.20;;;20.50;99.90;;;;;;5096989;28;20040;-70
2023/07/19 09:59:44;;;;;;;0.43;0.30;;;20.50;99.90;;;;;;5096942;28;20123;-70
2023/07/19 10:02:10;;;;;;;0.30;0.30;;;20.50;99.90;;;;;;5096998;28;20104;-70
2023/07/19 10:04:37;;;;;;;;;;;20.40;99.90;;;;;;5103552;28;20112;-70
2023/07/19 10:07:14;;;;;;;0.45;0.45;;;20.40;99.90;;;;;;5101154;28;19955;-70
2023/07/19 10:09:40;;;;;;;;;;;20.40;99.90;;;;;;5097282;28;20052;-72
2023/07/19 10:12:16;;;;;;;0.20;0.20;;;20.30;99.90;;;;;;5096520;28;19920;-69
2023/07/19 10:15:02;;;;;;;0.47;0.47;;;20.20;99.90;;;;;;5096491;28;20043;-69
2023/07/19 10:17:32;;;;;;;0.28;0.28;;;20.10;99.90;;;;;;5096891;28;20449;-69
2023/07/19 10:20:08;;;;;;;0.20;0.20;;;20.10;99.90;;;;;;5096630;28;20044;-69
2023/07/19 10:22:49;;;;;;;0.30;0.30;;;20.10;99.90;;;;;;5096529;28;20040;-70
2023/07/19 10:25:22;;;;;;;0.20;0.20;;;20.10;99.90;;;;;;5096589;28;20047;-70
2023/07/19 10:27:59;;;;;;;0.22;0.22;;;20.20;99.90;;;;;;5098056;28;20040;-70
2023/07/19 10:30:46;;;;;;;0.30;0.30;;;20.40;99.90;;;;;;5097361;28;20483;-70
2023/07/19 10:33:13;;;;;;;0.32;0.32;;;20.60;99.90;;;;;;5096593;28;20503;-70
2023/07/19 10:35:40;;;;;;;0.30;0.30;;;20.80;99.90;;;;;;5096514;28;20141;-69
2023/07/19 10:38:12;;;;;;;0.30;0.30;;;20.90;99.90;;;;;;5096163;28;20032;-68
2023/07/19 10:40:38;;;;;;;0.20;0.20;;;21.00;99.90;;;;;;5096208;28;20122;-69
2023/07/19 10:43:03;;;;;;;0.20;0.20;;;21.00;99.90;;;;;;5096299;28;20526;-69
2023/07/19 10:45:29;;;;;;;0.20;0.20;;;20.90;99.90;;;;;;5095896;28;20036;-70
2023/07/19 10:47:59;;;;;;;0.30;0.30;;;21.00;99.90;;;;;;5096017;28;20537;-71
2023/07/19 10:50:24;;;;;;;0.20;0.20;;;21.00;99.90;;;;;;5096354;28;20083;-70
2023/07/19 10:52:51;;;;;;;0.30;0.30;;;21.20;99.90;;;;;;5095911;28;20068;-72
2023/07/19 10:55:16;;;;;;;0.45;0.45;;;21.40;99.90;;;;;;5095922;28;20040;-72
2023/07/19 10:57:42;;;;;;;0.20;0.20;;;21.50;99.90;;;;;;5096083;28;20353;-74
2023/07/19 11:00:12;;;;;;;0.93;0.60;;;21.60;99.90;;;;;;5095617;28;20460;-71
2023/07/19 11:02:42;;;;;;;0.20;0.20;;;21.80;99.90;;;;;;5095780;28;20044;-71
2023/07/19 11:05:09;;;;;;;0.20;0.20;;;21.90;99.90;;;;;;5095492;28;20043;-72
2023/07/19 11:07:35;;;;;;;0.20;0.20;;;22.10;99.90;;;;;;5095670;28;20029;-72
2023/07/19 11:10:05;;;;;;;0.20;0.20;;;22.40;99.90;;;;;;5095761;28;20040;-72
2023/07/19 11:12:31;;;;;;;0.20;0.20;;;22.60;99.90;;;;;;5095906;28;20043;-73
2023/07/19 11:15:00;;;;;;;0.20;0.20;;;22.70;99.90;;;;;;5095505;28;20092;-72
2023/07/19 11:17:28;;;;;;;0.25;0.25;;;22.80;99.90;;;;;;5095247;28;20384;-72
2023/07/19 11:19:53;;;;;;;0.20;0.20;;;22.80;99.90;;;;;;5095844;28;20067;-72
2023/07/19 11:22:24;;;;;;;0.20;0.20;;;22.70;99.90;;;;;;5095179;28;20468;-72
2023/07/19 11:24:51;;;;;;;0.22;0.22;;;22.60;99.90;;;;;;5095410;28;20388;-72
2023/07/19 11:27:17;;;;;;;0.30;0.30;;;22.50;99.90;;;;;;5095191;28;20119;-72
2023/07/19 11:29:49;;;;;;;0.75;0.32;;;22.40;99.90;;;;;;5095177;28;20035;-72
2023/07/19 11:32:21;;;;;;;0.20;0.20;;;22.40;99.90;;;;;;5095305;28;20109;-71
2023/07/19 11:34:57;;;;;;;0.20;0.20;;;22.40;99.90;;;;;;5095141;28;20494;-72
2023/07/19 11:37:29;;;;;;;0.20;0.20;;;22.30;99.90;;;;;;5095101;28;20036;-70
2023/07/19 11:39:59;;;;;;;0.20;0.20;;;22.10;99.90;;;;;;5094959;28;20047;-73
2023/07/19 11:42:43;;;;;;;0.20;0.20;;;21.90;99.90;;;;;;5094737;28;20097;-73
2023/07/19 11:45:24;;;;;;;0.30;0.30;;;21.70;99.90;;;;;;5094820;28;20040;-72
2023/07/19 11:47:54;;;;;;;0.20;0.20;;;21.60;99.90;;;;;;5093906;28;20047;-73
2023/07/19 11:50:23;;;;;;;0.20;0.20;;;21.50;99.90;;;;;;5094102;28;20032;-74
2023/07/19 11:52:54;;;;;;;0.20;0.20;;;21.50;99.90;;;;;;5093026;28;20040;-74
2023/07/19 11:55:20;;;;;;;0.32;0.32;;;21.50;99.90;;;;;;5095168;28;20036;-72
2023/07/19 11:57:51;;;;;;;;;;;21.60;99.90;;;;;;5095230;28;20075;-72
2023/07/19 12:00:23;;;;;;;0.20;0.20;;;21.60;99.90;;;;;;5094927;28;19916;-72
2023/07/19 12:02:51;;;;;;;0.30;0.30;;;21.70;99.90;;;;;;5094665;28;20464;-72
2023/07/19 12:05:19;;;;;;;0.20;0.20;;;21.70;99.90;;;;;;5094129;28;20083;-73
2023/07/19 12:07:47;;;;;;;0.30;0.30;;;21.80;99.90;;;;;;5094946;28;20079;-76
2023/07/19 12:10:13;;;;;;;0.28;0.28;;;21.90;99.90;;;;;;5094897;28;20036;-75
2023/07/19 12:12:39;;;;;;;0.30;0.30;;;22.00;99.90;;;;;;5094788;28;20082;-71
2023/07/19 12:15:07;;;;;;;0.40;0.35;;;21.90;99.90;;;;;;5094225;28;20044;-73
2023/07/19 12:17:34;;;;;;;0.30;0.30;;;21.90;99.90;;;;;;5094282;28;20542;-71
2023/07/19 12:20:00;;;;;;;0.20;0.20;;;21.90;99.90;;;;;;5094167;28;20052;-73
2023/07/19 12:22:29;;;;;;;0.30;0.30;;;21.90;99.90;;;;;;5094342;28;20040;-71
2023/07/19 12:24:58;;;;;;;0.20;0.20;;;21.90;99.90;;;;;;5094233;28;20048;-70
2023/07/19 12:27:24;;;;;;;0.20;0.20;;;22.00;99.90;;;;;;5094098;28;20111;-72
2023/07/19 12:29:50;;;;;;;;;;;22.00;99.90;;;;;;5094483;28;20495;-72
2023/07/19 12:32:16;;;;;;;0.30;0.30;;;21.90;99.90;;;;;;5094205;28;19916;-71
2023/07/19 12:34:44;;;;;;;0.30;0.30;;;21.90;99.90;;;;;;5093701;28;20043;-72
2023/07/19 12:37:10;;;;;;;0.30;0.30;;;21.90;99.90;;;;;;5094374;28;20476;-72
2023/07/19 12:39:36;;;;;;;0.50;0.30;;;21.80;99.90;;;;;;5094287;28;20193;-71
2023/07/19 12:42:02;;;;;;;0.20;0.20;;;21.90;99.90;;;;;;5093955;28;20032;-69
2023/07/19 12:44:28;;;;;;;0.20;0.20;;;21.80;99.90;;;;;;5094058;28;20347;-69
2023/07/19 12:46:53;;;;;;;0.30;0.30;;;21.80;99.90;;;;;;5093755;28;20042;-68